createdAt,value
2019-04-19T00:02:15.053Z,15.90
2019-04-19T00:07:24.136Z,15.84
2019-04-19T00:12:39.947Z,15.82
2019-04-19T00:17:35.473Z,15.73
2019-04-19T00:23:04.286Z,15.67
2019-04-19T00:27:59.915Z,15.62
2019-04-19T00:33:25.080Z,15.57
2019-04-19T00:38:36.898Z,15.49
2019-04-19T00:43:58.924Z,15.41
2019-04-19T00:49:02.826Z,15.37
2019-04-19T00:54:11.890Z,15.32
2019-04-19T00:59:10.175Z,15.30
2019-04-19T01:04:18.810Z,15.20
2019-04-19T01:09:34.483Z,15.18
2019-04-19T01:14:36.382Z,15.10
2019-04-19T01:19:32.635Z,15.06
2019-04-19T01:24:42.878Z,15.02
2019-04-19T01:29:48.704Z,14.96
2019-04-19T01:34:57.921Z,14.88
2019-04-19T01:40:14.915Z,14.88
2019-04-19T01:45:41.819Z,14.81
2019-04-19T01:51:03.327Z,14.77
2019-04-19T01:56:02.833Z,14.66
2019-04-19T02:01:12.417Z,14.65
2019-04-19T02:06:16.279Z,14.55
2019-04-19T02:11:51.366Z,14.56
2019-04-19T02:16:55.923Z,14.47
2019-04-19T02:22:02.072Z,14.50
2019-04-19T02:27:09.128Z,14.47
2019-04-19T02:32:41.063Z,14.44
2019-04-19T02:37:49.309Z,14.42
2019-04-19T02:42:51.376Z,14.38
2019-04-19T02:47:57.826Z,14.24
2019-04-19T02:53:14.478Z,14.18
2019-04-19T03:08:10.421Z,14.07
2019-04-19T03:13:35.377Z,13.98
2019-04-19T03:18:52.164Z,13.91
2019-04-19T03:23:44.995Z,13.84
2019-04-19T03:28:46.423Z,13.79
2019-04-19T03:34:16.264Z,13.69
2019-04-19T03:39:17.901Z,13.66
2019-04-19T03:44:29.240Z,13.64
2019-04-19T03:49:37.200Z,13.58
2019-04-19T03:54:39.167Z,13.66
2019-04-19T03:59:33.411Z,13.50
2019-04-19T04:04:38.851Z,13.47
2019-04-19T04:09:57.845Z,13.40
2019-04-19T04:15:37.013Z,13.33
2019-04-19T04:20:28.569Z,13.33
2019-04-19T04:25:44.128Z,13.28
2019-04-19T04:30:57.566Z,13.27
2019-04-19T04:36:15.645Z,13.28
2019-04-19T04:41:05.648Z,13.22
2019-04-19T04:46:48.562Z,13.17
2019-04-19T04:51:52.641Z,13.17
2019-04-19T04:56:59.194Z,13.19
2019-04-19T05:02:04.558Z,13.13
2019-04-19T05:07:25.691Z,13.05
2019-04-19T05:12:43.526Z,13.09
2019-04-19T05:22:43.047Z,13.11
2019-04-19T05:27:55.301Z,13.06
2019-04-19T05:32:54.924Z,13.08
2019-04-19T05:38:08.465Z,13.18
2019-04-19T05:43:44.847Z,13.27
2019-04-19T05:48:24.659Z,13.35
2019-04-19T05:53:27.809Z,13.38
2019-04-19T05:58:39.657Z,13.43
2019-04-19T06:03:48.497Z,13.52
2019-04-19T06:08:40.478Z,13.65
2019-04-19T06:13:57.129Z,13.70
2019-04-19T06:19:16.639Z,13.75
2019-04-19T06:24:30.142Z,13.85
2019-04-19T06:29:41.223Z,13.93
2019-04-19T06:34:39.951Z,14.03
2019-04-19T06:39:28.765Z,14.14
2019-04-19T06:44:56.096Z,14.30
2019-04-19T06:49:41.775Z,14.42
2019-04-19T06:54:48.130Z,14.53
2019-04-19T07:00:07.575Z,14.63
2019-04-19T07:05:15.231Z,14.73
2019-04-19T07:10:39.708Z,14.88
2019-04-19T07:15:44.199Z,15.01
2019-04-19T07:20:33.692Z,15.22
2019-04-19T07:25:54.472Z,15.40
2019-04-19T07:30:37.415Z,15.67
2019-04-19T07:36:00.624Z,15.87
2019-04-19T07:41:29.307Z,15.99
2019-04-19T07:46:38.393Z,16.15
2019-04-19T07:51:34.172Z,16.33
2019-04-19T07:56:48.465Z,16.55
2019-04-19T08:12:19.001Z,17.14
2019-04-19T08:27:26.876Z,17.51
2019-04-19T08:32:27.847Z,17.63
2019-04-19T08:37:37.818Z,17.71
2019-04-19T08:42:54.123Z,17.81
2019-04-19T08:48:11.898Z,17.98
2019-04-19T08:53:26.784Z,18.23
2019-04-19T08:58:39.851Z,18.53
2019-04-19T09:03:49.285Z,18.74
2019-04-19T09:08:46.242Z,18.93
2019-04-19T09:14:02.302Z,19.09
2019-04-19T09:19:12.361Z,19.36
2019-04-19T09:24:01.912Z,19.67
2019-04-19T09:29:29.321Z,19.83
2019-04-19T09:34:13.255Z,19.95
2019-04-19T09:39:44.590Z,20.19
2019-04-19T09:44:46.095Z,20.40
2019-04-19T09:50:01.468Z,20.62
2019-04-19T09:55:15.362Z,20.75
2019-04-19T10:00:08.850Z,21.00
2019-04-19T10:05:09.690Z,21.11
2019-04-19T10:10:16.183Z,21.25
2019-04-19T10:15:40.540Z,21.56
2019-04-19T10:21:09.984Z,21.74
2019-04-19T10:26:24.333Z,22.00
2019-04-19T10:31:39.744Z,22.21
2019-04-19T10:36:47.700Z,22.47
2019-04-19T10:41:52.273Z,22.78
2019-04-19T10:46:58.763Z,22.79
2019-04-19T10:52:10.452Z,23.04
2019-04-19T10:57:21.272Z,23.51
2019-04-19T11:02:36.691Z,23.84
2019-04-19T11:07:43.647Z,24.17
2019-04-19T11:13:08.804Z,24.62
2019-04-19T11:18:14.355Z,24.68
2019-04-19T11:23:21.793Z,25.50
2019-04-19T11:28:27.185Z,25.62
2019-04-19T11:33:34.931Z,25.85
2019-04-19T11:38:41.206Z,26.11
2019-04-19T11:43:47.655Z,26.85
2019-04-19T11:48:52.892Z,27.08
2019-04-19T11:53:59.226Z,26.84
2019-04-19T11:59:08.888Z,26.47
2019-04-19T12:04:14.399Z,26.67
2019-04-19T12:09:22.682Z,27.22
2019-04-19T12:14:29.554Z,27.03
2019-04-19T12:19:45.297Z,27.46
2019-04-19T12:24:42.835Z,28.28
2019-04-19T12:29:51.389Z,28.89
2019-04-19T12:34:55.418Z,29.57
2019-04-19T12:40:01.072Z,29.51
2019-04-19T12:45:10.181Z,29.47
2019-04-19T12:50:17.952Z,30.17
2019-04-19T12:55:24.107Z,30.25
2019-04-19T13:00:56.304Z,29.98
2019-04-19T13:06:01.789Z,29.59
2019-04-19T13:11:07.658Z,29.25
2019-04-19T13:16:12.902Z,29.23
2019-04-19T13:21:19.867Z,29.32
2019-04-19T13:26:25.324Z,28.68
2019-04-19T13:31:31.113Z,28.48
2019-04-19T13:36:51.339Z,28.54
2019-04-19T13:42:05.193Z,28.20
2019-04-19T13:47:10.992Z,28.26
2019-04-19T13:52:16.653Z,28.18
2019-04-19T13:57:23.724Z,28.15
2019-04-19T14:02:29.427Z,28.07
2019-04-19T14:07:34.896Z,28.14
2019-04-19T14:12:40.997Z,27.69
2019-04-19T14:17:46.010Z,27.70
2019-04-19T14:22:51.872Z,27.91
2019-04-19T14:27:57.610Z,27.72
2019-04-19T14:33:04.172Z,27.22
2019-04-19T14:38:11.804Z,27.09
2019-04-19T14:43:20.532Z,27.00
2019-04-19T14:48:36.888Z,26.57
2019-04-19T14:53:42.826Z,26.29
2019-04-19T14:58:48.377Z,25.65
2019-04-19T15:03:57.043Z,25.21
2019-04-19T15:09:05.834Z,25.01
2019-04-19T15:14:14.522Z,24.84
2019-04-19T15:19:23.106Z,24.65
2019-04-19T15:24:28.622Z,24.61
2019-04-19T15:29:34.695Z,24.50
2019-04-19T15:34:40.773Z,24.40
2019-04-19T15:39:47.936Z,24.32
2019-04-19T15:44:55.254Z,24.35
2019-04-19T15:50:02.298Z,24.24
2019-04-19T15:55:14.203Z,24.07
2019-04-19T16:00:27.908Z,23.83
2019-04-19T16:05:44.442Z,23.82
2019-04-19T16:11:08.886Z,23.76
2019-04-19T16:16:16.454Z,23.77
2019-04-19T16:21:31.246Z,23.75
2019-04-19T16:26:31.015Z,23.73
2019-04-19T16:31:38.218Z,23.59
2019-04-19T16:36:45.442Z,23.55
2019-04-19T16:41:51.110Z,23.64
2019-04-19T16:46:59.304Z,23.53
2019-04-19T16:52:04.918Z,23.52
2019-04-19T16:57:20.759Z,23.48
2019-04-19T17:02:20.248Z,23.44
2019-04-19T17:07:26.824Z,23.42
2019-04-19T17:12:32.764Z,23.32
2019-04-19T17:17:46.813Z,23.30
2019-04-19T17:22:58.691Z,23.24
2019-04-19T17:28:05.123Z,23.21
2019-04-19T17:33:10.492Z,23.16
2019-04-19T17:38:26.918Z,23.05
2019-04-19T17:43:23.607Z,23.01
2019-04-19T17:48:30.439Z,22.93
2019-04-19T17:53:42.322Z,22.73
2019-04-19T17:58:42.614Z,22.65
2019-04-19T18:03:58.814Z,22.48
2019-04-19T18:09:12.801Z,22.40
2019-04-19T18:14:14.227Z,22.30
2019-04-19T18:19:26.347Z,22.23
2019-04-19T18:24:29.727Z,22.15
2019-04-19T18:29:37.983Z,22.10
2019-04-19T18:34:45.710Z,22.01
2019-04-19T18:39:54.369Z,21.91
2019-04-19T18:45:02.675Z,21.73
2019-04-19T18:50:08.625Z,21.69
2019-04-19T18:55:20.814Z,21.54
2019-04-19T19:00:22.216Z,21.45
2019-04-19T19:05:28.082Z,21.33
2019-04-19T19:10:43.630Z,21.20
2019-04-19T19:15:48.182Z,21.20
2019-04-19T19:20:55.810Z,21.05
2019-04-19T19:26:10.601Z,20.94
2019-04-19T19:31:04.938Z,20.85
2019-04-19T19:36:12.463Z,20.76
2019-04-19T19:41:29.875Z,20.66
2019-04-19T19:46:51.257Z,20.74
2019-04-19T19:51:47.752Z,20.75
2019-04-19T19:57:08.293Z,20.69
2019-04-19T20:02:05.936Z,20.69
2019-04-19T20:07:06.129Z,20.67
2019-04-19T20:12:32.974Z,20.59
2019-04-19T20:17:38.768Z,20.54
2019-04-19T20:22:45.279Z,20.56
2019-04-19T20:27:51.730Z,20.49
2019-04-19T20:32:59.133Z,20.42
2019-04-19T20:38:07.286Z,20.43
2019-04-19T20:43:25.380Z,20.22
2019-04-19T20:48:20.674Z,20.14
2019-04-19T20:53:38.710Z,19.99
2019-04-19T20:58:43.530Z,19.89
2019-04-19T21:04:03.035Z,19.80
2019-04-19T21:09:01.623Z,19.70
2019-04-19T21:14:09.278Z,19.61
2019-04-19T21:19:14.419Z,19.53
2019-04-19T21:24:20.461Z,19.41
2019-04-19T21:29:30.192Z,19.31
2019-04-19T21:34:36.494Z,19.22
2019-04-19T21:39:44.887Z,19.15
2019-04-19T21:44:51.641Z,19.08
2019-04-19T21:49:57.070Z,18.96
2019-04-19T21:55:12.493Z,18.89
2019-04-19T22:00:21.153Z,18.81
2019-04-19T22:05:30.611Z,18.83
2019-04-19T22:10:39.941Z,18.79
2019-04-19T22:15:44.200Z,18.68
2019-04-19T22:20:54.114Z,18.58
2019-04-19T22:26:09.629Z,18.50
2019-04-19T22:31:12.517Z,18.42
2019-04-19T22:36:19.548Z,18.43
2019-04-19T22:41:26.837Z,18.38
2019-04-19T22:46:39.121Z,18.05
2019-04-19T22:51:40.599Z,18.11
2019-04-19T22:56:58.588Z,18.12
2019-04-19T23:02:10.311Z,17.99
2019-04-19T23:07:16.755Z,17.93
2019-04-19T23:12:22.703Z,17.76
2019-04-19T23:17:34.884Z,17.73
2019-04-19T23:22:40.665Z,17.41
2019-04-19T23:27:49.015Z,17.08
2019-04-19T23:32:50.335Z,17.07
2019-04-19T23:37:55.601Z,16.95
2019-04-19T23:43:33.599Z,17.04
2019-04-19T23:48:33.630Z,16.99
2019-04-19T23:53:42.820Z,17.08
2019-04-19T23:58:46.587Z,17.04
